Nearby METAR Reports

 

KMTN - Baltimore/Martin, Maryland, USA
Distance from station: SSE 8mi, 13km
Updated: Sun, 21-Dec-2014 4:39am EST
Overcast
Overcast
 Wind from NW
Wind: NW 3 mph , 6 km/h
Temperature: 32°F , 0°C
Dew Point: 28°F , -2°C
Humidity: 87%
Barometer: 30.32 inHg , 1026.8 hPa
Clouds: Overcast
Visibility: 10 miles , 16 km
Cloud details: Overcast 7000 ft
2014/12/21 09:39 KMTN 210939Z AUTO 31003KT 10SM OVC070 00/M02 A3032 RMK AO2
KDMH - Baltimore/Dwntwn, Maryland, USA
Distance from station: SW 12mi, 19km
Updated: Sun, 21-Dec-2014 3:54am EST

 
Temperature: 34°F , 1°C
Dew Point: 23°F , -5°C
Humidity: 65%
Barometer: 30.31 inHg , 1026.4 hPa
2014/12/21 08:54 KDMH 210854Z AUTO 01/M05 A3031 RMK AO1 SLP263 T00111050 50006
 
KBWI - Balto/Wash Intl, Maryland, USA
Distance from station: SSW 20mi, 33km
Updated: Sun, 21-Dec-2014 3:54am EST
Overcast
Overcast
 Wind from calm
Wind: Calm
Temperature: 30°F , -1°C
Dew Point: 25°F , -4°C
Humidity: 80%
Barometer: 30.30 inHg , 1026.1 hPa
Clouds: Overcast
Visibility: 8 miles , 13 km
Cloud details: Few Clouds 3000 ft
Overcast 7500 ft
2014/12/21 08:54 KBWI 210854Z 00000KT 8SM FEW030 OVC075 M01/M04 A3030 RMK AO2 SLP261 T10061039 50002
KDMW - Carroll Cnty, Maryland, USA
Distance from station: WNW 30mi, 48km
Updated: Sun, 21-Dec-2014 4:35am EST
Overcast
Overcast
 Wind from calm
Wind: Calm
Temperature: 28°F , -2°C
Dew Point: 23°F , -5°C
Humidity: 80%
Barometer: 30.27 inHg , 1025.1 hPa
Clouds: Overcast
Visibility: 10 miles , 16 km
Cloud details: Overcast 7000 ft
2014/12/21 09:35 KDMW 210935Z AUTO 00000KT 10SM OVC070 M02/M05 A3027 RMK AO2
 
KNAK - Annapolis/Naval, Maryland, USA
Distance from station: S 30mi, 48km
Updated: Sun, 21-Dec-2014 3:54am EST
Overcast
Overcast
 Wind from NNW
Wind: NNW 3 mph , 6 km/h
Temperature: 36°F , 2°C
Dew Point: 27°F , -3°C
Humidity: 70%
Barometer: 30.30 inHg , 1026.1 hPa
Clouds: Overcast
Visibility: 7 miles , 11 km
Cloud details: Overcast 8000 ft
2014/12/21 08:54 KNAK 210854Z AUTO 34003KT 7SM OVC080 02/M03 A3030 RMK AO2 SLP262 T00171028 50000
KW29 - Stevensville, Maryland, USA
Distance from station: SSE 31mi, 50km
Updated: Sun, 21-Dec-2014 4:37am EST

 Wind from calm
Wind: Calm
Temperature: 34°F , 1°C
Dew Point: 28°F , -2°C
Humidity: 81%
Barometer: 30.31 inHg , 1026.4 hPa
Visibility: 10 miles , 16 km
2014/12/21 09:37 KW29 210937Z AUTO 00000KT 10SM 01/M02 A3031 RMK AO1
 
KCGS - College Park, Maryland, USA
Distance from station: SW 38mi, 61km
Updated: Sun, 21-Dec-2014 4:35am EST
Overcast
Overcast
 Wind from calm
Wind: Calm
Temperature: 34°F , 1°C
Dew Point: 28°F , -2°C
Humidity: 81%
Barometer: 30.30 inHg , 1026.1 hPa
Clouds: Overcast
Visibility: 10 miles , 16 km
Cloud details: Overcast 7000 ft
2014/12/21 09:35 KCGS 210935Z AUTO 00000KT 10SM OVC070 01/M02 A3030 RMK AO1
KGAI - Gaithersburg, Maryland, USA
Distance from station: WSW 40mi, 65km
Updated: Sun, 21-Dec-2014 4:35am EST
Overcast
Overcast
 Wind from calm
Wind: Calm
Temperature: 30°F , -1°C
Dew Point: 21°F , -6°C
Humidity: 69%
Barometer: 30.32 inHg , 1026.8 hPa
Clouds: Overcast
Visibility: 10 miles , 16 km
Cloud details: Overcast 6500 ft
2014/12/21 09:35 KGAI 210935Z 00000KT 10SM OVC065 M01/M06 A3032 RMK AO1
 
KTHV - York, Pennsylvania, USA
Distance from station: NNW 40mi, 65km
Updated: Sun, 21-Dec-2014 3:53am EST
Overcast
Overcast
 Wind from calm
Wind: Calm
Temperature: 25°F , -4°C
Dew Point: 23°F , -5°C
Humidity: 93%
Barometer: 30.29 inHg , 1025.7 hPa
Clouds: Overcast
Visibility: 8 miles , 13 km
Cloud details: Overcast 8000 ft
2014/12/21 08:53 KTHV 210853Z AUTO 00000KT 8SM OVC080 M04/M05 A3029 RMK AO2 SLP266 T10391050 51004
KFDK - Frederick, Maryland, USA
Distance from station: W 47mi, 75km
Updated: Sun, 21-Dec-2014 4:35am EST
Overcast
Overcast
 Wind from N
Wind: N 3 mph , 6 km/h
Temperature: 32°F , 0°C
Dew Point: 23°F , -5°C
Humidity: 69%
Barometer: 30.33 inHg , 1027.1 hPa
Clouds: Overcast
Visibility: 10 miles , 16 km
Cloud details: Partly cloudy 4100 ft
Overcast 7000 ft
2014/12/21 09:35 KFDK 210935Z AUTO 01003KT 10SM SCT041 OVC070 00/M05 A3033 RMK AO2
 
KESN - Easton/Newnam, Maryland, USA
Distance from station: SSE 48mi, 78km
Updated: Sun, 21-Dec-2014 4:52am EST
Overcast
Overcast
 Wind from calm
Wind: Calm
Temperature: 32°F , 0°C
Dew Point: 32°F , 0°C
Humidity: 100%
Barometer: 30.33 inHg , 1027.1 hPa
Clouds: Overcast
Visibility: 7 miles , 11 km
Cloud details: Overcast 7500 ft
2014/12/21 09:52 KESN 210952Z AUTO 00000KT 7SM OVC075 00/00 A3033 RMK AO2 T00011001
KDCA - Washington/Natl, Washington D.c., USA
Distance from station: SW 49mi, 79km
Updated: Sun, 21-Dec-2014 3:52am EST
Overcast
Overcast
 Wind from ENE
Wind: ENE 5 mph , 7 km/h
Temperature: 37°F , 3°C
Wind Chill: 33°F , 1°C
Dew Point: 23°F , -5°C
Humidity: 56%
Barometer: 30.32 inHg , 1026.8 hPa
Clouds: Overcast
Visibility: 10 miles , 16 km
Cloud details: Overcast 7000 ft
2014/12/21 08:52 KDCA 210852Z 06004KT 10SM OVC070 03/M05 A3032 RMK AO2 SLP265 T00281050 50003
 
KLNS - Lancaster, Pennsylvania, USA
Distance from station: N 49mi, 79km
Updated: Sun, 21-Dec-2014 3:53am EST
Clear
Clear
 Wind from W
Wind: W 5 mph , 7 km/h
Temperature: 27°F , -3°C
Wind Chill: 21°F , -6°C
Dew Point: 21°F , -6°C
Humidity: 80%
Barometer: 30.29 inHg , 1025.7 hPa
Clouds: Clear
Visibility: 9 miles , 14 km
2014/12/21 08:53 KLNS 210853Z AUTO 28004KT 9SM CLR M03/M06 A3029 RMK AO2 SLP260 T10281056 50003
KILG - Wilmington, Delaware, USA
Distance from station: ENE 50mi, 81km
Updated: Sun, 21-Dec-2014 3:51am EST
Overcast
Overcast
 Wind from calm
Wind: Calm
Temperature: 30°F , -1°C
Dew Point: 25°F , -4°C
Humidity: 80%
Barometer: 30.31 inHg , 1026.4 hPa
Clouds: Overcast
Visibility: 7 miles , 11 km
Cloud details: Overcast 8500 ft
2014/12/21 08:51 KILG 210851Z 00000KT 7SM OVC085 M01/M04 A3031 RMK AO2 SLP264 T10061039 50002